sensor_id;sensor_type;location;lat;lon;timestamp;P1;durP1;ratioP1;P2;durP2;ratioP2
7076;SDS011;3579;48.956;9.154;2023-12-04T00:01:35;2.40;;;2.20;;
7076;SDS011;3579;48.956;9.154;2023-12-04T00:04:01;2.60;;;2.40;;
7076;SDS011;3579;48.956;9.154;2023-12-04T00:06:27;2.10;;;1.90;;
7076;SDS011;3579;48.956;9.154;2023-12-04T00:08:53;2.63;;;2.40;;
7076;SDS011;3579;48.956;9.154;2023-12-04T00:11:19;2.50;;;2.27;;
7076;SDS011;3579;48.956;9.154;2023-12-04T00:13:45;2.73;;;2.20;;
7076;SDS011;3579;48.956;9.154;2023-12-04T00:16:11;2.50;;;2.30;;
7076;SDS011;3579;48.956;9.154;2023-12-04T00:18:37;2.27;;;2.07;;
7076;SDS011;3579;48.956;9.154;2023-12-04T00:21:03;2.37;;;2.17;;
7076;SDS011;3579;48.956;9.154;2023-12-04T00:23:29;2.43;;;2.23;;
7076;SDS011;3579;48.956;9.154;2023-12-04T00:25:55;2.40;;;2.20;;
7076;SDS011;3579;48.956;9.154;2023-12-04T00:28:21;2.60;;;2.13;;
7076;SDS011;3579;48.956;9.154;2023-12-04T00:30:47;2.30;;;1.90;;
7076;SDS011;3579;48.956;9.154;2023-12-04T00:33:13;2.80;;;2.27;;
7076;SDS011;3579;48.956;9.154;2023-12-04T00:35:39;2.93;;;2.33;;
7076;SDS011;3579;48.956;9.154;2023-12-04T00:38:06;2.30;;;2.10;;
7076;SDS011;3579;48.956;9.154;2023-12-04T00:40:32;2.23;;;2.03;;
7076;SDS011;3579;48.956;9.154;2023-12-04T00:42:58;2.37;;;2.00;;
7076;SDS011;3579;48.956;9.154;2023-12-04T00:45:24;2.43;;;2.00;;
7076;SDS011;3579;48.956;9.154;2023-12-04T00:47:50;2.97;;;2.30;;
7076;SDS011;3579;48.956;9.154;2023-12-04T00:50:16;2.53;;;2.23;;
7076;SDS011;3579;48.956;9.154;2023-12-04T00:52:42;2.47;;;2.10;;
7076;SDS011;3579;48.956;9.154;2023-12-04T00:55:08;2.90;;;2.20;;
7076;SDS011;3579;48.956;9.154;2023-12-04T00:57:34;2.17;;;1.83;;
7076;SDS011;3579;48.956;9.154;2023-12-04T01:00:01;2.17;;;1.97;;
7076;SDS011;3579;48.956;9.154;2023-12-04T01:02:27;2.27;;;2.00;;
7076;SDS011;3579;48.956;9.154;2023-12-04T01:04:53;2.77;;;2.50;;
7076;SDS011;3579;48.956;9.154;2023-12-04T01:07:19;3.10;;;2.13;;
7076;SDS011;3579;48.956;9.154;2023-12-04T01:09:45;2.40;;;2.20;;
7076;SDS011;3579;48.956;9.154;2023-12-04T01:12:11;2.47;;;2.27;;
7076;SDS011;3579;48.956;9.154;2023-12-04T01:14:37;2.53;;;2.07;;
7076;SDS011;3579;48.956;9.154;2023-12-04T01:17:04;2.30;;;2.10;;
7076;SDS011;3579;48.956;9.154;2023-12-04T01:19:30;2.57;;;2.33;;
7076;SDS011;3579;48.956;9.154;2023-12-04T01:21:56;2.63;;;2.17;;
7076;SDS011;3579;48.956;9.154;2023-12-04T01:24:24;2.63;;;2.07;;
7076;SDS011;3579;48.956;9.154;2023-12-04T01:26:52;2.30;;;2.10;;
7076;SDS011;3579;48.956;9.154;2023-12-04T01:29:19;2.30;;;2.10;;
7076;SDS011;3579;48.956;9.154;2023-12-04T01:31:45;2.10;;;1.90;;
7076;SDS011;3579;48.956;9.154;2023-12-04T01:34:11;2.23;;;2.00;;
7076;SDS011;3579;48.956;9.154;2023-12-04T01:36:40;2.03;;;1.80;;
7076;SDS011;3579;48.956;9.154;2023-12-04T01:39:06;2.37;;;2.00;;
7076;SDS011;3579;48.956;9.154;2023-12-04T01:41:33;2.37;;;2.10;;
7076;SDS011;3579;48.956;9.154;2023-12-04T01:43:59;2.70;;;2.27;;
7076;SDS011;3579;48.956;9.154;2023-12-04T01:46:25;2.30;;;1.90;;
7076;SDS011;3579;48.956;9.154;2023-12-04T01:48:51;2.30;;;2.07;;
7076;SDS011;3579;48.956;9.154;2023-12-04T01:51:19;2.30;;;1.93;;
7076;SDS011;3579;48.956;9.154;2023-12-04T01:53:45;2.00;;;1.77;;
7076;SDS011;3579;48.956;9.154;2023-12-04T01:56:13;2.43;;;2.07;;
7076;SDS011;3579;48.956;9.154;2023-12-04T01:58:41;2.33;;;2.00;;
7076;SDS011;3579;48.956;9.154;2023-12-04T02:01:08;2.40;;;1.97;;
7076;SDS011;3579;48.956;9.154;2023-12-04T02:03:36;2.47;;;2.17;;
7076;SDS011;3579;48.956;9.154;2023-12-04T02:06:02;2.27;;;2.00;;
7076;SDS011;3579;48.956;9.154;2023-12-04T02:08:29;2.30;;;2.10;;
7076;SDS011;3579;48.956;9.154;2023-12-04T02:10:55;3.37;;;2.17;;
7076;SDS011;3579;48.956;9.154;2023-12-04T02:13:21;2.17;;;1.97;;
7076;SDS011;3579;48.956;9.154;2023-12-04T02:15:49;2.30;;;2.10;;
7076;SDS011;3579;48.956;9.154;2023-12-04T02:18:17;2.00;;;1.80;;
7076;SDS011;3579;48.956;9.154;2023-12-04T02:20:44;2.67;;;2.17;;
7076;SDS011;3579;48.956;9.154;2023-12-04T02:23:10;2.13;;;1.87;;
7076;SDS011;3579;48.956;9.154;2023-12-04T02:25:36;2.30;;;2.10;;
7076;SDS011;3579;48.956;9.154;2023-12-04T02:28:05;2.30;;;2.07;;
7076;SDS011;3579;48.956;9.154;2023-12-04T02:30:33;2.80;;;2.30;;
7076;SDS011;3579;48.956;9.154;2023-12-04T02:33:03;2.87;;;2.17;;
7076;SDS011;3579;48.956;9.154;2023-12-04T02:35:31;2.20;;;2.00;;
7076;SDS011;3579;48.956;9.154;2023-12-04T02:38:00;2.20;;;2.00;;
7076;SDS011;3579;48.956;9.154;2023-12-04T02:40:26;2.20;;;2.00;;
7076;SDS011;3579;48.956;9.154;2023-12-04T02:42:53;2.00;;;1.80;;
7076;SDS011;3579;48.956;9.154;2023-12-04T02:45:19;2.37;;;2.10;;
7076;SDS011;3579;48.956;9.154;2023-12-04T02:47:45;2.10;;;1.90;;
7076;SDS011;3579;48.956;9.154;2023-12-04T02:50:11;2.00;;;1.80;;
7076;SDS011;3579;48.956;9.154;2023-12-04T02:52:37;2.47;;;2.00;;
7076;SDS011;3579;48.956;9.154;2023-12-04T02:55:03;2.40;;;2.10;;
7076;SDS011;3579;48.956;9.154;2023-12-04T02:57:30;2.10;;;1.80;;
7076;SDS011;3579;48.956;9.154;2023-12-04T02:59:56;2.00;;;1.80;;
7076;SDS011;3579;48.956;9.154;2023-12-04T03:02:22;2.20;;;2.00;;
7076;SDS011;3579;48.956;9.154;2023-12-04T03:04:48;2.40;;;2.20;;
7076;SDS011;3579;48.956;9.154;2023-12-04T03:07:14;2.10;;;1.90;;
7076;SDS011;3579;48.956;9.154;2023-12-04T03:09:40;2.00;;;1.80;;
7076;SDS011;3579;48.956;9.154;2023-12-04T03:12:06;2.30;;;2.10;;
7076;SDS011;3579;48.956;9.154;2023-12-04T03:14:32;2.27;;;1.90;;
7076;SDS011;3579;48.956;9.154;2023-12-04T03:16:58;2.20;;;2.00;;
7076;SDS011;3579;48.956;9.154;2023-12-04T03:19:24;2.20;;;2.00;;
7076;SDS011;3579;48.956;9.154;2023-12-04T03:21:50;2.10;;;1.87;;
7076;SDS011;3579;48.956;9.154;2023-12-04T03:24:16;2.37;;;2.17;;
7076;SDS011;3579;48.956;9.154;2023-12-04T03:26:42;2.10;;;1.87;;
7076;SDS011;3579;48.956;9.154;2023-12-04T03:29:08;2.20;;;2.00;;
7076;SDS011;3579;48.956;9.154;2023-12-04T03:31:34;2.30;;;1.70;;
7076;SDS011;3579;48.956;9.154;2023-12-04T03:34:01;2.30;;;2.00;;
7076;SDS011;3579;48.956;9.154;2023-12-04T03:36:28;2.00;;;1.80;;
7076;SDS011;3579;48.956;9.154;2023-12-04T03:38:54;2.37;;;2.13;;
7076;SDS011;3579;48.956;9.154;2023-12-04T03:41:20;2.00;;;1.80;;
7076;SDS011;3579;48.956;9.154;2023-12-04T03:43:47;2.00;;;1.70;;
7076;SDS011;3579;48.956;9.154;2023-12-04T03:46:13;2.17;;;1.97;;
7076;SDS011;3579;48.956;9.154;2023-12-04T03:48:39;2.10;;;1.87;;
7076;SDS011;3579;48.956;9.154;2023-12-04T03:51:05;2.20;;;2.00;;
7076;SDS011;3579;48.956;9.154;2023-12-04T03:53:31;2.40;;;2.00;;
7076;SDS011;3579;48.956;9.154;2023-12-04T03:55:58;2.40;;;1.90;;
7076;SDS011;3579;48.956;9.154;2023-12-04T03:58:24;2.03;;;1.83;;
7076;SDS011;3579;48.956;9.154;2023-12-04T04:00:50;2.43;;;2.17;;
7076;SDS011;3579;48.956;9.154;2023-12-04T04:03:16;2.20;;;1.90;;
7076;SDS011;3579;48.956;9.154;2023-12-04T04:05:42;2.10;;;1.90;;
7076;SDS011;3579;48.956;9.154;2023-12-04T04:08:08;2.20;;;2.00;;
7076;SDS011;3579;48.956;9.154;2023-12-04T04:10:34;2.10;;;1.90;;
7076;SDS011;3579;48.956;9.154;2023-12-04T04:13:00;2.37;;;2.13;;
7076;SDS011;3579;48.956;9.154;2023-12-04T04:15:27;2.00;;;1.80;;
7076;SDS011;3579;48.956;9.154;2023-12-04T04:17:53;2.07;;;1.87;;
7076;SDS011;3579;48.956;9.154;2023-12-04T04:20:19;1.80;;;1.70;;
7076;SDS011;3579;48.956;9.154;2023-12-04T04:22:47;2.20;;;2.00;;
7076;SDS011;3579;48.956;9.154;2023-12-04T04:25:14;2.00;;;1.80;;
7076;SDS011;3579;48.956;9.154;2023-12-04T04:27:40;2.57;;;2.00;;
7076;SDS011;3579;48.956;9.154;2023-12-04T04:30:06;2.07;;;1.80;;
7076;SDS011;3579;48.956;9.154;2023-12-04T04:32:33;2.00;;;1.80;;
7076;SDS011;3579;48.956;9.154;2023-12-04T04:35:01;2.40;;;2.20;;
7076;SDS011;3579;48.956;9.154;2023-12-04T04:37:27;2.00;;;1.83;;
7076;SDS011;3579;48.956;9.154;2023-12-04T04:39:53;2.33;;;2.13;;
7076;SDS011;3579;48.956;9.154;2023-12-04T04:42:19;2.17;;;1.97;;
7076;SDS011;3579;48.956;9.154;2023-12-04T04:44:45;2.47;;;2.10;;
7076;SDS011;3579;48.956;9.154;2023-12-04T04:47:11;2.20;;;2.00;;
7076;SDS011;3579;48.956;9.154;2023-12-04T04:49:37;2.47;;;2.00;;
7076;SDS011;3579;48.956;9.154;2023-12-04T04:52:03;2.23;;;2.00;;
7076;SDS011;3579;48.956;9.154;2023-12-04T04:54:32;2.23;;;2.00;;
7076;SDS011;3579;48.956;9.154;2023-12-04T04:56:58;2.10;;;1.90;;
7076;SDS011;3579;48.956;9.154;2023-12-04T04:59:24;2.00;;;1.80;;
7076;SDS011;3579;48.956;9.154;2023-12-04T05:01:50;2.07;;;1.87;;
7076;SDS011;3579;48.956;9.154;2023-12-04T05:04:16;2.50;;;2.10;;
7076;SDS011;3579;48.956;9.154;2023-12-04T05:06:42;2.10;;;1.80;;
7076;SDS011;3579;48.956;9.154;2023-12-04T05:09:08;2.17;;;1.97;;
7076;SDS011;3579;48.956;9.154;2023-12-04T05:11:34;2.63;;;2.00;;
7076;SDS011;3579;48.956;9.154;2023-12-04T05:14:01;2.50;;;2.10;;
7076;SDS011;3579;48.956;9.154;2023-12-04T05:16:27;3.63;;;2.07;;
7076;SDS011;3579;48.956;9.154;2023-12-04T05:18:52;2.20;;;2.00;;
7076;SDS011;3579;48.956;9.154;2023-12-04T05:21:19;2.33;;;2.13;;
7076;SDS011;3579;48.956;9.154;2023-12-04T05:23:45;2.63;;;2.30;;
7076;SDS011;3579;48.956;9.154;2023-12-04T05:26:11;2.47;;;2.27;;
7076;SDS011;3579;48.956;9.154;2023-12-04T05:28:37;2.20;;;2.00;;
7076;SDS011;3579;48.956;9.154;2023-12-04T05:31:03;2.50;;;2.23;;
7076;SDS011;3579;48.956;9.154;2023-12-04T05:33:30;4.73;;;2.43;;
7076;SDS011;3579;48.956;9.154;2023-12-04T05:35:56;3.00;;;2.60;;
7076;SDS011;3579;48.956;9.154;2023-12-04T05:38:22;3.17;;;2.50;;
7076;SDS011;3579;48.956;9.154;2023-12-04T05:40:48;2.60;;;2.40;;
7076;SDS011;3579;48.956;9.154;2023-12-04T05:43:14;2.70;;;2.30;;
7076;SDS011;3579;48.956;9.154;2023-12-04T05:45:40;2.40;;;2.10;;
7076;SDS011;3579;48.956;9.154;2023-12-04T05:48:06;2.17;;;1.97;;
7076;SDS011;3579;48.956;9.154;2023-12-04T05:50:32;2.37;;;2.17;;
7076;SDS011;3579;48.956;9.154;2023-12-04T05:52:58;2.80;;;2.37;;
7076;SDS011;3579;48.956;9.154;2023-12-04T05:55:24;2.20;;;1.90;;
7076;SDS011;3579;48.956;9.154;2023-12-04T05:57:50;2.67;;;2.07;;
7076;SDS011;3579;48.956;9.154;2023-12-04T06:00:17;2.27;;;2.07;;
7076;SDS011;3579;48.956;9.154;2023-12-04T06:02:44;2.30;;;2.10;;
7076;SDS011;3579;48.956;9.154;2023-12-04T06:05:10;2.97;;;2.27;;
7076;SDS011;3579;48.956;9.154;2023-12-04T06:07:36;2.13;;;1.87;;
7076;SDS011;3579;48.956;9.154;2023-12-04T06:10:04;2.10;;;1.90;;
7076;SDS011;3579;48.956;9.154;2023-12-04T06:12:30;3.37;;;2.10;;
7076;SDS011;3579;48.956;9.154;2023-12-04T06:14:58;2.40;;;2.00;;
7076;SDS011;3579;48.956;9.154;2023-12-04T06:17:24;2.30;;;2.10;;
7076;SDS011;3579;48.956;9.154;2023-12-04T06:19:52;2.40;;;2.00;;
7076;SDS011;3579;48.956;9.154;2023-12-04T06:22:19;2.70;;;2.17;;
7076;SDS011;3579;48.956;9.154;2023-12-04T06:24:47;2.50;;;1.90;;
7076;SDS011;3579;48.956;9.154;2023-12-04T06:27:17;2.23;;;1.93;;
7076;SDS011;3579;48.956;9.154;2023-12-04T06:29:47;2.47;;;2.03;;
7076;SDS011;3579;48.956;9.154;2023-12-04T06:32:14;3.53;;;1.90;;
7076;SDS011;3579;48.956;9.154;2023-12-04T06:34:40;9.87;;;2.63;;
7076;SDS011;3579;48.956;9.154;2023-12-04T06:37:10;10.80;;;2.97;;
7076;SDS011;3579;48.956;9.154;2023-12-04T06:39:38;9.00;;;2.87;;
7076;SDS011;3579;48.956;9.154;2023-12-04T06:42:08;12.23;;;3.43;;
7076;SDS011;3579;48.956;9.154;2023-12-04T06:44:35;13.90;;;2.60;;
7076;SDS011;3579;48.956;9.154;2023-12-04T06:47:02;13.97;;;3.20;;
7076;SDS011;3579;48.956;9.154;2023-12-04T06:49:29;7.87;;;2.77;;
7076;SDS011;3579;48.956;9.154;2023-12-04T06:51:59;8.33;;;2.67;;
7076;SDS011;3579;48.956;9.154;2023-12-04T06:54:26;7.53;;;2.60;;
7076;SDS011;3579;48.956;9.154;2023-12-04T06:56:52;4.97;;;2.63;;
7076;SDS011;3579;48.956;9.154;2023-12-04T06:59:18;6.73;;;2.70;;
7076;SDS011;3579;48.956;9.154;2023-12-04T07:01:44;7.13;;;2.80;;
7076;SDS011;3579;48.956;9.154;2023-12-04T07:04:11;4.70;;;2.47;;
7076;SDS011;3579;48.956;9.154;2023-12-04T07:06:38;7.20;;;2.83;;
7076;SDS011;3579;48.956;9.154;2023-12-04T07:09:05;8.13;;;2.90;;
7076;SDS011;3579;48.956;9.154;2023-12-04T07:11:34;5.00;;;2.50;;
7076;SDS011;3579;48.956;9.154;2023-12-04T07:14:00;7.87;;;2.33;;
7076;SDS011;3579;48.956;9.154;2023-12-04T07:16:27;6.83;;;3.10;;
7076;SDS011;3579;48.956;9.154;2023-12-04T07:18:53;7.07;;;2.87;;
7076;SDS011;3579;48.956;9.154;2023-12-04T07:21:19;6.70;;;2.80;;
7076;SDS011;3579;48.956;9.154;2023-12-04T07:23:45;5.67;;;2.37;;
7076;SDS011;3579;48.956;9.154;2023-12-04T07:26:12;3.83;;;2.30;;
7076;SDS011;3579;48.956;9.154;2023-12-04T07:28:38;4.70;;;2.20;;
7076;SDS011;3579;48.956;9.154;2023-12-04T07:31:04;8.63;;;2.63;;
7076;SDS011;3579;48.956;9.154;2023-12-04T07:33:30;4.73;;;2.00;;
7076;SDS011;3579;48.956;9.154;2023-12-04T07:35:56;5.30;;;2.47;;
7076;SDS011;3579;48.956;9.154;2023-12-04T07:38:22;5.53;;;2.47;;
7076;SDS011;3579;48.956;9.154;2023-12-04T07:40:48;4.87;;;2.60;;
7076;SDS011;3579;48.956;9.154;2023-12-04T07:43:14;5.70;;;2.17;;
7076;SDS011;3579;48.956;9.154;2023-12-04T07:45:40;3.93;;;2.30;;
7076;SDS011;3579;48.956;9.154;2023-12-04T07:48:07;6.20;;;2.70;;
7076;SDS011;3579;48.956;9.154;2023-12-04T07:50:33;8.53;;;2.80;;
7076;SDS011;3579;48.956;9.154;2023-12-04T07:52:59;4.43;;;2.43;;
7076;SDS011;3579;48.956;9.154;2023-12-04T07:55:25;4.33;;;2.30;;
7076;SDS011;3579;48.956;9.154;2023-12-04T07:57:51;3.43;;;2.43;;
7076;SDS011;3579;48.956;9.154;2023-12-04T08:00:18;6.53;;;2.50;;
7076;SDS011;3579;48.956;9.154;2023-12-04T08:02:44;5.23;;;2.20;;
7076;SDS011;3579;48.956;9.154;2023-12-04T08:05:11;3.27;;;2.40;;
7076;SDS011;3579;48.956;9.154;2023-12-04T08:07:38;6.23;;;2.00;;
7076;SDS011;3579;48.956;9.154;2023-12-04T08:10:05;3.70;;;2.53;;
7076;SDS011;3579;48.956;9.154;2023-12-04T08:12:32;4.80;;;2.30;;
7076;SDS011;3579;48.956;9.154;2023-12-04T08:14:59;5.40;;;2.27;;
7076;SDS011;3579;48.956;9.154;2023-12-04T08:17:27;3.37;;;2.20;;
7076;SDS011;3579;48.956;9.154;2023-12-04T08:19:53;5.80;;;2.50;;
7076;SDS011;3579;48.956;9.154;2023-12-04T08:22:19;5.17;;;2.70;;
7076;SDS011;3579;48.956;9.154;2023-12-04T08:24:47;5.27;;;2.37;;
7076;SDS011;3579;48.956;9.154;2023-12-04T08:27:13;3.23;;;2.30;;
7076;SDS011;3579;48.956;9.154;2023-12-04T08:29:41;2.77;;;2.03;;
7076;SDS011;3579;48.956;9.154;2023-12-04T08:32:07;4.47;;;2.27;;
7076;SDS011;3579;48.956;9.154;2023-12-04T08:34:33;4.20;;;2.07;;
7076;SDS011;3579;48.956;9.154;2023-12-04T08:36:59;6.97;;;2.10;;
7076;SDS011;3579;48.956;9.154;2023-12-04T08:39:25;2.70;;;1.90;;
7076;SDS011;3579;48.956;9.154;2023-12-04T08:41:53;7.37;;;2.27;;
7076;SDS011;3579;48.956;9.154;2023-12-04T08:44:19;5.57;;;2.23;;
7076;SDS011;3579;48.956;9.154;2023-12-04T08:46:47;7.70;;;1.90;;
7076;SDS011;3579;48.956;9.154;2023-12-04T08:49:14;5.40;;;2.03;;
7076;SDS011;3579;48.956;9.154;2023-12-04T08:51:41;4.83;;;2.30;;
7076;SDS011;3579;48.956;9.154;2023-12-04T08:54:07;4.60;;;2.13;;
7076;SDS011;3579;48.956;9.154;2023-12-04T08:56:34;3.70;;;1.87;;
7076;SDS011;3579;48.956;9.154;2023-12-04T08:59:00;3.40;;;1.97;;
7076;SDS011;3579;48.956;9.154;2023-12-04T09:01:26;3.13;;;2.10;;
7076;SDS011;3579;48.956;9.154;2023-12-04T09:03:52;6.10;;;2.27;;
7076;SDS011;3579;48.956;9.154;2023-12-04T09:08:54;4.33;;;2.03;;
7076;SDS011;3579;48.956;9.154;2023-12-04T09:11:20;3.60;;;2.20;;
7076;SDS011;3579;48.956;9.154;2023-12-04T09:13:46;3.67;;;2.10;;
7076;SDS011;3579;48.956;9.154;2023-12-04T09:16:13;3.90;;;2.20;;
7076;SDS011;3579;48.956;9.154;2023-12-04T09:18:39;3.53;;;2.37;;
7076;SDS011;3579;48.956;9.154;2023-12-04T09:21:05;4.10;;;2.20;;
7076;SDS011;3579;48.956;9.154;2023-12-04T09:23:31;5.53;;;2.37;;
7076;SDS011;3579;48.956;9.154;2023-12-04T09:25:57;2.80;;;1.83;;
7076;SDS011;3579;48.956;9.154;2023-12-04T09:28:23;7.47;;;2.70;;
7076;SDS011;3579;48.956;9.154;2023-12-04T09:30:49;5.73;;;2.40;;
7076;SDS011;3579;48.956;9.154;2023-12-04T09:33:15;4.10;;;2.50;;
7076;SDS011;3579;48.956;9.154;2023-12-04T09:35:42;6.33;;;2.30;;
7076;SDS011;3579;48.956;9.154;2023-12-04T09:38:08;3.67;;;2.10;;
7076;SDS011;3579;48.956;9.154;2023-12-04T09:40:35;3.43;;;2.20;;
7076;SDS011;3579;48.956;9.154;2023-12-04T09:43:01;10.03;;;2.30;;
7076;SDS011;3579;48.956;9.154;2023-12-04T09:45:28;4.40;;;2.20;;
7076;SDS011;3579;48.956;9.154;2023-12-04T09:47:57;3.80;;;2.17;;
7076;SDS011;3579;48.956;9.154;2023-12-04T09:50:24;3.93;;;2.30;;
7076;SDS011;3579;48.956;9.154;2023-12-04T09:52:51;3.40;;;2.20;;
7076;SDS011;3579;48.956;9.154;2023-12-04T09:55:20;3.37;;;1.90;;
7076;SDS011;3579;48.956;9.154;2023-12-04T09:57:46;5.53;;;1.90;;
7076;SDS011;3579;48.956;9.154;2023-12-04T10:00:14;4.83;;;2.20;;
7076;SDS011;3579;48.956;9.154;2023-12-04T10:02:41;3.10;;;2.00;;
7076;SDS011;3579;48.956;9.154;2023-12-04T10:05:07;4.77;;;2.10;;
7076;SDS011;3579;48.956;9.154;2023-12-04T10:07:35;4.13;;;2.10;;
7076;SDS011;3579;48.956;9.154;2023-12-04T10:10:02;2.63;;;2.00;;
7076;SDS011;3579;48.956;9.154;2023-12-04T10:12:31;4.83;;;2.20;;
7076;SDS011;3579;48.956;9.154;2023-12-04T10:25:22;4.43;;;2.40;;
7076;SDS011;3579;48.956;9.154;2023-12-04T10:27:53;3.90;;;2.13;;
7076;SDS011;3579;48.956;9.154;2023-12-04T10:30:30;5.57;;;2.40;;
7076;SDS011;3579;48.956;9.154;2023-12-04T10:32:57;4.23;;;2.20;;
7076;SDS011;3579;48.956;9.154;2023-12-04T10:35:29;4.03;;;2.40;;
7076;SDS011;3579;48.956;9.154;2023-12-04T10:37:59;4.83;;;1.90;;
7076;SDS011;3579;48.956;9.154;2023-12-04T10:40:25;3.77;;;2.03;;
7076;SDS011;3579;48.956;9.154;2023-12-04T10:43:11;3.63;;;2.17;;
7076;SDS011;3579;48.956;9.154;2023-12-04T10:45:42;4.73;;;2.30;;
7076;SDS011;3579;48.956;9.154;2023-12-04T10:48:11;2.77;;;2.10;;
7076;SDS011;3579;48.956;9.154;2023-12-04T10:50:39;4.93;;;2.40;;
7076;SDS011;3579;48.956;9.154;2023-12-04T10:53:06;4.70;;;2.50;;
7076;SDS011;3579;48.956;9.154;2023-12-04T10:55:33;3.67;;;2.23;;
7076;SDS011;3579;48.956;9.154;2023-12-04T10:58:01;4.03;;;2.17;;
7076;SDS011;3579;48.956;9.154;2023-12-04T11:00:35;6.33;;;2.50;;
7076;SDS011;3579;48.956;9.154;2023-12-04T11:03:07;4.50;;;2.30;;
7076;SDS011;3579;48.956;9.154;2023-12-04T11:05:38;4.93;;;2.43;;
7076;SDS011;3579;48.956;9.154;2023-12-04T11:08:11;8.27;;;2.73;;
7076;SDS011;3579;48.956;9.154;2023-12-04T11:10:45;6.60;;;2.90;;
7076;SDS011;3579;48.956;9.154;2023-12-04T11:13:21;3.83;;;2.53;;
7076;SDS011;3579;48.956;9.154;2023-12-04T11:15:50;3.17;;;2.20;;
7076;SDS011;3579;48.956;9.154;2023-12-04T11:18:21;5.53;;;2.30;;
7076;SDS011;3579;48.956;9.154;2023-12-04T11:20:56;4.40;;;2.57;;
7076;SDS011;3579;48.956;9.154;2023-12-04T11:23:29;3.73;;;2.53;;
7076;SDS011;3579;48.956;9.154;2023-12-04T11:25:57;3.67;;;2.30;;
7076;SDS011;3579;48.956;9.154;2023-12-04T11:28:26;5.00;;;2.60;;
7076;SDS011;3579;48.956;9.154;2023-12-04T11:30:53;2.67;;;2.30;;
7076;SDS011;3579;48.956;9.154;2023-12-04T11:33:20;6.30;;;2.27;;
7076;SDS011;3579;48.956;9.154;2023-12-04T11:35:46;5.33;;;2.33;;
7076;SDS011;3579;48.956;9.154;2023-12-04T11:38:13;3.83;;;2.13;;
7076;SDS011;3579;48.956;9.154;2023-12-04T11:40:40;3.80;;;2.20;;
7076;SDS011;3579;48.956;9.154;2023-12-04T11:43:21;5.37;;;1.97;;
7076;SDS011;3579;48.956;9.154;2023-12-04T11:45:49;4.13;;;1.93;;
7076;SDS011;3579;48.956;9.154;2023-12-04T11:48:15;3.43;;;2.80;;
7076;SDS011;3579;48.956;9.154;2023-12-04T11:50:42;3.93;;;2.63;;
7076;SDS011;3579;48.956;9.154;2023-12-04T11:53:10;4.63;;;2.40;;
7076;SDS011;3579;48.956;9.154;2023-12-04T11:55:39;5.20;;;2.60;;
7076;SDS011;3579;48.956;9.154;2023-12-04T11:58:10;3.93;;;2.87;;
7076;SDS011;3579;48.956;9.154;2023-12-04T12:00:37;5.70;;;2.77;;
7076;SDS011;3579;48.956;9.154;2023-12-04T12:03:06;4.37;;;2.73;;
7076;SDS011;3579;48.956;9.154;2023-12-04T12:05:35;7.27;;;2.77;;
7076;SDS011;3579;48.956;9.154;2023-12-04T12:08:04;5.20;;;2.77;;
7076;SDS011;3579;48.956;9.154;2023-12-04T12:10:32;5.10;;;2.53;;
7076;SDS011;3579;48.956;9.154;2023-12-04T12:12:59;5.13;;;3.17;;
7076;SDS011;3579;48.956;9.154;2023-12-04T12:15:26;3.63;;;2.73;;
7076;SDS011;3579;48.956;9.154;2023-12-04T12:17:53;5.87;;;2.97;;
7076;SDS011;3579;48.956;9.154;2023-12-04T12:20:19;3.80;;;2.70;;
7076;SDS011;3579;48.956;9.154;2023-12-04T12:22:48;4.07;;;2.63;;
7076;SDS011;3579;48.956;9.154;2023-12-04T12:25:14;4.87;;;2.67;;
7076;SDS011;3579;48.956;9.154;2023-12-04T12:27:41;3.10;;;2.27;;
7076;SDS011;3579;48.956;9.154;2023-12-04T12:30:08;3.20;;;2.47;;
7076;SDS011;3579;48.956;9.154;2023-12-04T12:32:34;3.20;;;2.80;;
7076;SDS011;3579;48.956;9.154;2023-12-04T12:35:03;6.77;;;2.50;;
7076;SDS011;3579;48.956;9.154;2023-12-04T12:37:29;3.67;;;2.50;;
7076;SDS011;3579;48.956;9.154;2023-12-04T12:39:56;3.30;;;2.60;;
7076;SDS011;3579;48.956;9.154;2023-12-04T12:44:53;6.90;;;2.63;;
7076;SDS011;3579;48.956;9.154;2023-12-04T12:47:20;5.23;;;2.60;;
7076;SDS011;3579;48.956;9.154;2023-12-04T12:49:47;2.83;;;2.53;;
7076;SDS011;3579;48.956;9.154;2023-12-04T12:52:14;3.83;;;2.40;;
7076;SDS011;3579;48.956;9.154;2023-12-04T12:54:41;3.87;;;2.67;;
7076;SDS011;3579;48.956;9.154;2023-12-04T12:57:08;3.67;;;2.60;;
7076;SDS011;3579;48.956;9.154;2023-12-04T12:59:37;3.17;;;2.50;;
7076;SDS011;3579;48.956;9.154;2023-12-04T13:02:04;4.27;;;2.53;;
7076;SDS011;3579;48.956;9.154;2023-12-04T13:04:39;3.90;;;2.40;;
7076;SDS011;3579;48.956;9.154;2023-12-04T13:07:07;6.17;;;2.57;;
7076;SDS011;3579;48.956;9.154;2023-12-04T13:09:34;4.60;;;2.43;;
7076;SDS011;3579;48.956;9.154;2023-12-04T13:12:19;3.50;;;2.50;;
7076;SDS011;3579;48.956;9.154;2023-12-04T13:14:45;3.07;;;2.50;;
7076;SDS011;3579;48.956;9.154;2023-12-04T13:17:11;4.33;;;2.23;;
7076;SDS011;3579;48.956;9.154;2023-12-04T13:19:37;3.50;;;2.40;;
7076;SDS011;3579;48.956;9.154;2023-12-04T13:22:03;2.77;;;2.33;;
7076;SDS011;3579;48.956;9.154;2023-12-04T13:24:29;2.87;;;2.20;;
7076;SDS011;3579;48.956;9.154;2023-12-04T13:26:55;3.47;;;2.40;;
7076;SDS011;3579;48.956;9.154;2023-12-04T13:29:21;2.63;;;2.33;;
7076;SDS011;3579;48.956;9.154;2023-12-04T13:31:48;2.93;;;2.27;;
7076;SDS011;3579;48.956;9.154;2023-12-04T13:34:15;7.87;;;2.80;;
7076;SDS011;3579;48.956;9.154;2023-12-04T13:36:42;3.10;;;2.30;;
7076;SDS011;3579;48.956;9.154;2023-12-04T13:39:08;3.90;;;2.27;;
7076;SDS011;3579;48.956;9.154;2023-12-04T13:41:45;4.50;;;2.60;;
7076;SDS011;3579;48.956;9.154;2023-12-04T13:44:30;4.70;;;2.40;;
7076;SDS011;3579;48.956;9.154;2023-12-04T13:46:56;4.57;;;2.67;;
7076;SDS011;3579;48.956;9.154;2023-12-04T13:49:22;3.43;;;2.70;;
7076;SDS011;3579;48.956;9.154;2023-12-04T13:51:48;3.83;;;2.50;;
7076;SDS011;3579;48.956;9.154;2023-12-04T13:54:15;3.70;;;2.23;;
7076;SDS011;3579;48.956;9.154;2023-12-04T13:56:47;4.50;;;2.50;;
7076;SDS011;3579;48.956;9.154;2023-12-04T13:59:20;4.07;;;2.37;;
7076;SDS011;3579;48.956;9.154;2023-12-04T14:01:47;3.97;;;2.23;;
7076;SDS011;3579;48.956;9.154;2023-12-04T14:04:17;4.40;;;2.50;;
7076;SDS011;3579;48.956;9.154;2023-12-04T14:06:44;4.90;;;2.70;;
7076;SDS011;3579;48.956;9.154;2023-12-04T14:09:11;4.03;;;2.50;;
7076;SDS011;3579;48.956;9.154;2023-12-04T14:11:42;2.83;;;2.10;;
7076;SDS011;3579;48.956;9.154;2023-12-04T14:14:13;2.63;;;2.17;;
7076;SDS011;3579;48.956;9.154;2023-12-04T14:16:39;2.77;;;2.30;;
7076;SDS011;3579;48.956;9.154;2023-12-04T14:19:06;2.73;;;1.97;;
7076;SDS011;3579;48.956;9.154;2023-12-04T14:21:32;2.83;;;2.40;;
7076;SDS011;3579;48.956;9.154;2023-12-04T14:23:58;4.03;;;2.53;;
7076;SDS011;3579;48.956;9.154;2023-12-04T14:26:25;2.87;;;2.20;;
7076;SDS011;3579;48.956;9.154;2023-12-04T14:28:51;2.53;;;2.13;;
7076;SDS011;3579;48.956;9.154;2023-12-04T14:31:17;3.10;;;2.30;;
7076;SDS011;3579;48.956;9.154;2023-12-04T14:33:44;3.47;;;2.40;;
7076;SDS011;3579;48.956;9.154;2023-12-04T14:36:10;6.57;;;2.50;;
7076;SDS011;3579;48.956;9.154;2023-12-04T14:38:39;3.93;;;2.50;;
7076;SDS011;3579;48.956;9.154;2023-12-04T14:41:05;3.00;;;2.07;;
7076;SDS011;3579;48.956;9.154;2023-12-04T14:43:32;2.77;;;2.30;;
7076;SDS011;3579;48.956;9.154;2023-12-04T14:45:59;3.70;;;2.43;;
7076;SDS011;3579;48.956;9.154;2023-12-04T14:48:25;3.77;;;2.43;;
7076;SDS011;3579;48.956;9.154;2023-12-04T14:50:51;2.93;;;2.33;;
7076;SDS011;3579;48.956;9.154;2023-12-04T14:53:17;3.73;;;2.57;;
7076;SDS011;3579;48.956;9.154;2023-12-04T14:56:16;5.63;;;2.40;;
7076;SDS011;3579;48.956;9.154;2023-12-04T14:59:18;3.20;;;2.40;;
7076;SDS011;3579;48.956;9.154;2023-12-04T15:02:16;2.50;;;2.13;;
7076;SDS011;3579;48.956;9.154;2023-12-04T15:04:55;3.80;;;2.30;;
7076;SDS011;3579;48.956;9.154;2023-12-04T15:07:30;3.53;;;2.40;;
7076;SDS011;3579;48.956;9.154;2023-12-04T15:10:21;4.87;;;2.43;;
7076;SDS011;3579;48.956;9.154;2023-12-04T15:12:50;4.83;;;2.33;;
7076;SDS011;3579;48.956;9.154;2023-12-04T15:15:38;3.60;;;2.20;;
7076;SDS011;3579;48.956;9.154;2023-12-04T15:18:27;3.10;;;2.43;;
7076;SDS011;3579;48.956;9.154;2023-12-04T15:20:59;3.17;;;2.00;;
7076;SDS011;3579;48.956;9.154;2023-12-04T15:23:25;3.10;;;2.00;;
7076;SDS011;3579;48.956;9.154;2023-12-04T15:25:55;6.00;;;2.60;;
7076;SDS011;3579;48.956;9.154;2023-12-04T15:28:21;4.80;;;2.40;;
7076;SDS011;3579;48.956;9.154;2023-12-04T15:30:48;4.83;;;2.40;;
7076;SDS011;3579;48.956;9.154;2023-12-04T15:33:15;2.73;;;2.20;;